Flight Track Log - Related Links

Times and Time Zones

All times are in EDT time to prevent confusion due to time zone crossing. See the SNC1612 flight status page for this flight to view local times or setup timezone preferences in your user account.

Time Position Orientation Groundspeed Altitude Reporting Facility
EDT Latitude Longitude Course Direction KTS MPH feet Rate Location/Type
Tue 05:10:58 AM 38.1733 -85.8567 320° Northwest 151 174 3,200  Level Indianapolis Center
Tue 05:11:59 AM 38.1900 -85.9072 293° West 153 176 4,200 885 Climbing Indianapolis Center
Tue 05:13:00 AM 38.2097 -85.9528 299° West 150 173 5,000 744 Climbing Indianapolis Center
Tue 05:14:00 AM 38.4040 -85.9982 318° Northwest  Level FlightAware Approximate
Tue 05:14:00 AM 38.2350 -85.9981 305° West 153 176 5,700  Level Indianapolis Center
Tue 05:15:00 AM 38.4325 -86.0528 318° Northwest  Level Estimated
Tue 05:15:01 AM 38.2603 -86.0447 305° West 158 182 6,500  Level Indianapolis Center
Tue 05:16:00 AM 38.4715 -86.0954 320° Northwest  Level FlightAware Approximate
Tue 05:16:02 AM 38.2881 -86.0878 309° West 158 182 7,400  Level Indianapolis Center
Tue 05:17:03 AM 38.3150 -86.1286 310° West 152 175 8,100 347 Climbing Indianapolis Center
Tue 05:18:03 AM 38.3467 -86.1744 311° West 168 193 8,100 -50 Level Indianapolis Center
Tue 05:19:04 AM 38.3850 -86.2233 315° West 189 217 8,000  Descending Indianapolis Center
Tue 05:20:05 AM 38.4211 -86.2767 311° West 196 226 8,100  Climbing Indianapolis Center
Tue 05:21:05 AM 38.4583 -86.3283 313° West 198 228 8,000 -50 Descending Indianapolis Center
Tue 05:22:06 AM 38.4972 -86.3800 314° West 201 231 8,000  Level Indianapolis Center
Tue 05:23:07 AM 38.5369 -86.4283 316° Northwest 198 228 8,000  Level Indianapolis Center
Tue 05:24:08 AM 38.5783 -86.4739 319° Northwest 198 228 8,000  Level Indianapolis Center
Tue 05:25:08 AM 38.6108 -86.5283 307° West 193 222 8,000  Level Indianapolis Center
Tue 05:26:09 AM 38.6428 -86.5867 305° West 198 228 8,000  Level Indianapolis Center
Tue 05:27:10 AM 38.6742 -86.6439 305° West 198 228 8,000  Level Indianapolis Center
Tue 05:28:10 AM 38.7042 -86.7033 303° West 198 228 8,000  Level Indianapolis Center
Tue 05:29:11 AM 38.7353 -86.7617 304° West 198 228 8,000  Level Indianapolis Center
Tue 05:30:12 AM 38.7711 -86.8333 303° West 199 229 8,000 -298 Level Indianapolis Center
Tue 05:31:12 AM 38.8031 -86.8922 305° West 200 230 7,400 -545 Descending Indianapolis Center
Tue 05:32:13 AM 38.8364 -86.9558 304° West 209 241 6,900 -492 Descending Indianapolis Center
Tue 05:33:14 AM 38.8700 -87.0164 305° West 210 242 6,400 -397 Descending Indianapolis Center
Tue 05:34:14 AM 38.9019 -87.0761 305° West 206 237 6,100 -149 Descending Indianapolis Center
Tue 05:35:15 AM 38.9333 -87.1353 304° West 203 234 6,100 -50 Level Indianapolis Center
Tue 05:36:15 AM 38.9639 -87.1903 306° West 194 223 6,000  Descending Indianapolis Center
Tue 05:37:16 AM 38.9922 -87.2483 302° West 192 221 6,100  Climbing Indianapolis Center
Tue 05:38:17 AM 39.0219 -87.3044 304° West 190 219 6,000  Descending Indianapolis Center
Tue 05:39:17 AM 39.0506 -87.3614 303° West 189 217 6,100 50 Climbing Indianapolis Center
Tue 05:40:18 AM 39.0819 -87.4178 306° West 191 220 6,100  Level Indianapolis Center
Tue 05:41:18 AM 39.1147 -87.4783 305° West 192 221 6,100 -50 Level Indianapolis Center
Tue 05:42:19 AM 39.1475 -87.5350 307° West 196 226 6,000 -50 Descending Indianapolis Center
Tue 05:43:19 AM 39.1794 -87.5897 307° West 193 222 6,000  Level Indianapolis Center
Tue 05:44:20 AM 39.2089 -87.6439 305° West 195 224 6,000  Level Indianapolis Center
Tue 05:45:21 AM 39.2397 -87.7014 305° West 195 224 6,000  Level Indianapolis Center
Tue 05:46:21 AM 39.2681 -87.7603 302° West 193 222 6,000  Level Indianapolis Center
Tue 05:47:22 AM 39.3006 -87.8158 307° West 193 222 6,000 -50 Level Indianapolis Center
Tue 05:48:22 AM 39.3336 -87.8700 308° West 193 222 5,900  Descending Indianapolis Center
Tue 05:49:23 AM 39.3661 -87.9289 306° West 193 222 6,000  Climbing Indianapolis Center
Tue 05:50:23 AM 39.3969 -87.9844 306° West 192 221 5,900 50 Descending Indianapolis Center
Tue 05:51:24 AM 39.4297 -88.0397 308° West 193 222 6,100 49 Climbing Indianapolis Center
Tue 05:52:25 AM 39.4581 -88.0994 302° West 194 223 6,000 -50 Descending Indianapolis Center
Tue 05:53:25 AM 39.4881 -88.1567 304° West 193 222 6,000 -50 Level Indianapolis Center
Tue 05:54:26 AM 39.5194 -88.2156 305° West 195 224 5,900 -248 Descending Indianapolis Center
Tue 05:55:26 AM 39.5511 -88.2750 305° West 198 228 5,500 -400 Descending Indianapolis Center
Tue 05:57:11 AM 39.6122 -88.3825 306° West 198 228 4,800 -434 Descending Chicago Center
Tue 05:58:12 AM 39.6436 -88.4419 304° West 199 229 4,300 -496 Descending Chicago Center
Tue 05:59:12 AM 39.6792 -88.4967 310° West 199 229 3,800 -550 Descending Chicago Center
Tue 06:00:12 AM 39.7119 -88.5528 307° West 197 227 3,200 -397 Descending Chicago Center
Tue 06:01:13 AM 39.7425 -88.6089 305° West 194 223 3,000 -149 Descending Chicago Center
Tue 06:02:13 AM 39.7725 -88.6617 306° West 188 216 2,900 -100 Descending Chicago Center

Login

Don't have an account? Register now (free) for customized features, flight alerts, and more!